Time;durP1;ratioP1;P1;durP2;ratioP2;P2;SDS_P1;SDS_P2;PMS_P1;PMS_P2;Temp;Humidity;BMP_temperature;BMP_pressure;BME280_temperature;BME280_humidity;BME280_pressure;Samples;Min_cycle;Max_cycle;Signal;HPM_P1;HPM_P2
2022/01/27 00:00:59;;;;;;;;;;;5.40;99.90;;;;;;5041209;28;19897;-78
2022/01/27 00:03:33;;;;;;;;;;;5.40;99.90;;;;;;5045347;28;19913;-74
2022/01/27 00:06:07;;;;;;;;;;;5.50;99.90;;;;;;5027863;28;19918;-76
2022/01/27 00:08:42;;;;;;;;;;;5.50;99.90;;;;;;5070723;28;19909;-78
2022/01/27 00:11:13;;;;;;;;;;;5.50;99.90;;;;;;5051983;28;19967;-78
2022/01/27 00:13:49;;;;;;;;;;;5.50;99.90;;;;;;5055221;28;19964;-80
2022/01/27 00:16:23;;;;;;;;;;;5.50;99.90;;;;;;5076630;28;19964;-80
2022/01/27 00:18:52;;;;;;;;;;;5.60;99.90;;;;;;5076471;28;19901;-76
2022/01/27 00:21:19;;;;;;;;;;;5.60;99.90;;;;;;5074613;28;19909;-80
2022/01/27 00:23:45;;;;;;;;;;;5.60;99.90;;;;;;5057431;28;19908;-77
2022/01/27 00:26:11;;;;;;;;;;;5.60;99.90;;;;;;5056056;28;19924;-77
2022/01/27 00:28:37;;;;;;;;;;;5.60;99.90;;;;;;5074507;28;19988;-81
2022/01/27 00:31:03;;;;;;;;;;;5.60;99.90;;;;;;5053041;28;19916;-79
2022/01/27 00:33:28;;;;;;;;;;;5.60;99.90;;;;;;5049311;28;19920;-78
2022/01/27 00:35:54;;;;;;;;;;;5.60;99.90;;;;;;5052231;28;19952;-79
2022/01/27 00:38:19;;;;;;;;;;;5.70;99.90;;;;;;5069692;28;19946;-80
2022/01/27 00:40:44;;;;;;;;;;;5.70;99.90;;;;;;5053585;28;19912;-76
2022/01/27 00:43:10;;;;;;;;;;;5.70;99.90;;;;;;5069707;28;19937;-79
2022/01/27 00:45:36;;;;;;;;;;;5.60;99.90;;;;;;5052691;28;20011;-80
2022/01/27 00:48:05;;;;;;;;;;;5.60;99.90;;;;;;5077142;28;19971;-83
2022/01/27 00:50:32;;;;;;;;;;;5.60;99.90;;;;;;5052431;28;20024;-79
2022/01/27 00:53:01;;;;;;;;;;;5.60;99.90;;;;;;5065359;28;19908;-79
2022/01/27 00:55:29;;;;;;;;;;;5.60;99.90;;;;;;5065470;28;20295;-78
2022/01/27 01:00:58;;;;;;;;;;;5.50;99.90;;;;;;5044852;28;19913;-78
2022/01/27 01:03:29;;;;;;;;;;;5.50;99.90;;;;;;5041733;28;19913;-76
2022/01/27 01:06:15;;;;;;;;;;;5.50;99.90;;;;;;5063079;28;19980;-76
2022/01/27 01:16:03;;;;;;;;;;;5.60;99.90;;;;;;5062872;28;19934;-76
2022/01/27 01:18:45;;;;;;;;;;;5.60;99.90;;;;;;5061402;28;19916;-78
2022/01/27 01:32:09;;;;;;;;;;;5.60;99.90;;;;;;5060193;28;20239;-75
2022/01/27 01:34:34;;;;;;;;;;;5.60;99.90;;;;;;5055241;28;19916;-78
2022/01/27 01:37:05;;;;;;;;;;;5.60;99.90;;;;;;5061694;28;19917;-81
2022/01/27 01:39:33;;;;;;;;;;;5.60;99.90;;;;;;5064053;28;19952;-80
2022/01/27 01:42:02;;;;;;;;;;;5.60;99.90;;;;;;5065276;28;19934;-80
2022/01/27 01:44:28;;;;;;;;;;;5.60;99.90;;;;;;5064631;28;19896;-80
2022/01/27 01:46:54;;;;;;;;;;;5.50;99.90;;;;;;5062893;28;19916;-79
2022/01/27 01:49:22;;;;;;;;;;;5.50;99.90;;;;;;5059712;28;19912;-79
2022/01/27 01:51:48;;;;;;;;;;;5.50;99.90;;;;;;5051786;28;19925;-77
2022/01/27 01:54:14;;;;;;;;;;;5.60;99.90;;;;;;5070327;28;19915;-75
2022/01/27 01:56:40;;;;;;;;;;;5.60;99.90;;;;;;5060853;28;19908;-78
2022/01/27 01:59:06;;;;;;;;;;;5.60;99.90;;;;;;5059399;28;19928;-79
2022/01/27 02:01:32;;;;;;;;;;;5.60;99.90;;;;;;5040905;28;19912;-74
2022/01/27 02:04:03;;;;;;;;;;;5.60;99.90;;;;;;5058629;28;19912;-78
2022/01/27 02:06:35;;;;;;;;;;;5.60;99.90;;;;;;5041334;28;19909;-76
2022/01/27 02:19:39;;;;;;;;;;;5.60;99.90;;;;;;5067126;28;19939;-77
2022/01/27 02:22:05;;;;;;;;;;;5.50;99.90;;;;;;5062817;28;19927;-77
2022/01/27 02:24:33;;;;;;;;;;;5.50;99.90;;;;;;5061523;28;19908;-77
2022/01/27 02:26:59;;;;;;;;;;;5.50;99.90;;;;;;5041851;28;19909;-76
2022/01/27 02:29:25;;;;;;;;;;;5.50;99.90;;;;;;5058274;28;19987;-78
2022/01/27 02:31:51;;;;;;;;;;;5.40;99.90;;;;;;5041478;28;19913;-77
2022/01/27 02:34:17;;;;;;;;;;;5.40;99.90;;;;;;5041230;28;19909;-77
2022/01/27 02:36:43;;;;;;;;;;;5.30;99.90;;;;;;5061471;28;19923;-75
2022/01/27 02:39:09;;;;;;;;;;;5.30;99.90;;;;;;5042935;28;20031;-76
2022/01/27 02:41:41;;;;;;;;;;;5.30;99.90;;;;;;5059807;28;20047;-77
2022/01/27 02:44:06;;;;;;;;;;;5.20;99.90;;;;;;5062493;28;20458;-76
2022/01/27 02:46:36;;;;;;;;;;;5.20;99.90;;;;;;5056825;28;19952;-78
2022/01/27 02:49:02;;;;;;;;;;;5.20;99.90;;;;;;5065638;28;19916;-80
2022/01/27 02:51:27;;;;;;;;;;;5.20;99.90;;;;;;5076366;28;19912;-78
2022/01/27 02:53:55;;;;;;;;;;;5.10;99.90;;;;;;5072457;28;19916;-79
2022/01/27 02:56:20;;;;;;;;;;;5.10;99.90;;;;;;5070269;28;19909;-76
2022/01/27 02:58:46;;;;;;;;;;;5.10;99.90;;;;;;5072471;28;19963;-78
2022/01/27 03:01:17;;;;;;;;;;;5.10;99.90;;;;;;5065784;28;19913;-77
2022/01/27 03:03:42;;;;;;;;;;;5.10;99.90;;;;;;5063063;28;19936;-79
2022/01/27 03:06:08;;;;;;;;;;;5.10;99.90;;;;;;5065237;28;19924;-74
2022/01/27 03:08:33;;;;;;;;;;;5.10;99.90;;;;;;5046605;28;20000;-75
2022/01/27 03:11:02;;;;;;;;;;;5.20;99.90;;;;;;5057564;28;20478;-76
2022/01/27 03:13:30;;;;;;;;;;;5.20;99.90;;;;;;5059052;28;19931;-79
2022/01/27 03:15:55;;;;;;;;;;;5.20;99.90;;;;;;5058884;28;19917;-79
2022/01/27 03:18:21;;;;;;;;;;;5.20;99.90;;;;;;5040061;28;19912;-76
2022/01/27 03:20:46;;;;;;;;;;;5.20;99.90;;;;;;5059482;28;19943;-78
2022/01/27 03:23:12;;;;;;;;;;;5.20;99.90;;;;;;5061960;28;19998;-80
2022/01/27 03:25:38;;;;;;;;;;;5.20;99.90;;;;;;5061015;28;19916;-77
2022/01/27 03:28:04;;;;;;;;;;;5.20;99.90;;;;;;5065907;28;19931;-80
2022/01/27 03:30:29;;;;;;;;;;;5.10;99.90;;;;;;5062377;28;19924;-76
2022/01/27 03:32:55;;;;;;;;;;;5.10;99.90;;;;;;5067041;28;20027;-79
2022/01/27 03:35:21;;;;;;;;;;;5.10;99.90;;;;;;5043472;28;19919;-80
2022/01/27 03:37:46;;;;;;;;;;;5.10;99.90;;;;;;5059532;28;19924;-80
2022/01/27 03:40:12;;;;;;;;;;;5.10;99.90;;;;;;5041549;28;19991;-78
2022/01/27 03:42:44;;;;;;;;;;;5.10;99.90;;;;;;5059680;28;19913;-77
2022/01/27 03:45:10;;;;;;;;;;;5.10;99.90;;;;;;5039753;28;20624;-76
2022/01/27 03:47:35;;;;;;;;;;;5.10;99.90;;;;;;5057589;28;19924;-76
2022/01/27 03:50:02;;;;;;;;;;;5.00;99.90;;;;;;5058472;28;19919;-77
2022/01/27 03:52:27;;;;;;;;;;;5.00;99.90;;;;;;5067610;28;19916;-75
2022/01/27 03:54:53;;;;;;;;;;;5.00;99.90;;;;;;5059992;28;20459;-78
2022/01/27 03:57:18;;;;;;;;;;;5.00;99.90;;;;;;5057594;28;19975;-76
2022/01/27 03:59:44;;;;;;;;;;;5.00;99.90;;;;;;5059211;28;19916;-77
2022/01/27 04:02:09;;;;;;;;;;;5.00;99.90;;;;;;5058674;28;19909;-78
2022/01/27 04:04:35;;;;;;;;;;;5.00;99.90;;;;;;5042216;28;19924;-78
2022/01/27 04:07:02;;;;;;;;;;;5.00;99.90;;;;;;5056864;28;19913;-80
2022/01/27 04:09:29;;;;;;;;;;;5.00;99.90;;;;;;5056028;28;19920;-77
2022/01/27 04:11:55;;;;;;;;;;;5.00;99.90;;;;;;5038403;28;20026;-77
2022/01/27 04:14:20;;;;;;;;;;;5.00;99.90;;;;;;5039964;28;19917;-77
2022/01/27 04:16:47;;;;;;;;;;;5.00;99.90;;;;;;5051518;28;19921;-78
2022/01/27 04:19:13;;;;;;;;;;;5.00;99.90;;;;;;5057022;28;19916;-77
2022/01/27 04:21:38;;;;;;;;;;;5.00;99.90;;;;;;5061432;28;19913;-77
2022/01/27 04:24:04;;;;;;;;;;;5.00;99.90;;;;;;5066146;28;19915;-77
2022/01/27 04:26:43;;;;;;;;;;;5.00;99.90;;;;;;5065665;28;19920;-78
2022/01/27 04:29:08;;;;;;;;;;;5.00;99.90;;;;;;5065600;28;19916;-78
2022/01/27 04:31:36;;;;;;;;;;;5.00;99.90;;;;;;5060667;28;19984;-76
2022/01/27 04:34:02;;;;;;;;;;;5.00;99.90;;;;;;5058864;28;19952;-78
2022/01/27 04:36:30;;;;;;;;;;;5.10;99.90;;;;;;5057706;28;19909;-77
2022/01/27 04:39:08;;;;;;;;;;;5.20;99.90;;;;;;5058724;28;19952;-78
2022/01/27 04:44:28;;;;;;;;;;;5.30;99.90;;;;;;5057827;28;19917;-77
2022/01/27 04:47:07;;;;;;;;;;;5.30;99.90;;;;;;5059376;28;19913;-78
2022/01/27 04:49:32;;;;;;;;;;;5.30;99.90;;;;;;5043043;28;19909;-80
2022/01/27 04:51:58;;;;;;;;;;;5.40;99.90;;;;;;5058015;28;19912;-78
2022/01/27 04:54:40;;;;;;;;;;;5.50;99.90;;;;;;5044590;28;20047;-78
2022/01/27 04:57:06;;;;;;;;;;;5.50;99.90;;;;;;5063280;28;19913;-78
2022/01/27 04:59:38;;;;;;;;;;;5.50;99.90;;;;;;5063738;28;19913;-80
2022/01/27 05:02:05;;;;;;;;;;;5.50;99.90;;;;;;5070527;28;19913;-79
2022/01/27 05:04:35;;;;;;;;;;;5.50;99.90;;;;;;5069191;28;19919;-81
2022/01/27 05:07:02;;;;;;;;;;;5.60;99.90;;;;;;5059796;28;19936;-77
2022/01/27 05:09:27;;;;;;;;;;;5.50;99.90;;;;;;5056399;28;19916;-77
2022/01/27 05:12:06;;;;;;;;;;;5.60;99.90;;;;;;5054920;28;19913;-76
2022/01/27 05:14:33;;;;;;;;;;;5.60;99.90;;;;;;5044953;28;20387;-77
2022/01/27 05:16:59;;;;;;;;;;;5.60;99.90;;;;;;5051847;28;20019;-77
2022/01/27 05:19:24;;;;;;;;;;;5.70;99.90;;;;;;5050113;28;20027;-77
2022/01/27 05:21:49;;;;;;;;;;;5.70;99.90;;;;;;5043611;28;20378;-80
2022/01/27 05:24:16;;;;;;;;;;;5.70;99.90;;;;;;5046560;28;19944;-77
2022/01/27 05:26:42;;;;;;;;;;;5.80;99.90;;;;;;5045475;28;20279;-77
2022/01/27 05:29:10;;;;;;;;;;;5.80;99.90;;;;;;5043851;28;19927;-77
2022/01/27 05:31:36;;;;;;;;;;;5.80;99.90;;;;;;5041053;28;19923;-78
2022/01/27 05:34:02;;;;;;;;;;;5.80;99.90;;;;;;5059700;28;19913;-75
2022/01/27 05:36:27;;;;;;;;;;;5.90;99.90;;;;;;5040041;28;19922;-77
2022/01/27 05:38:53;;;;;;;;;;;5.90;99.90;;;;;;5056016;28;19913;-79
2022/01/27 05:41:18;;;;;;;;;;;5.90;99.90;;;;;;5049578;28;19921;-79
2022/01/27 05:43:44;;;;;;;;;;;5.90;99.90;;;;;;5038447;28;19908;-80
2022/01/27 05:46:09;;;;;;;;;;;5.90;99.90;;;;;;5055235;28;19913;-78
2022/01/27 05:48:35;;;;;;;;;;;6.00;99.90;;;;;;5036025;28;20000;-80
2022/01/27 05:51:01;;;;;;;;;;;5.90;99.90;;;;;;5057583;28;19913;-79
2022/01/27 05:53:28;;;;;;;;;;;5.90;99.90;;;;;;5042815;28;19913;-78
2022/01/27 05:55:53;;;;;;;;;;;5.90;99.90;;;;;;5045247;28;20083;-79
2022/01/27 05:58:19;;;;;;;;;;;5.90;99.90;;;;;;5045444;28;19952;-77
2022/01/27 06:00:45;;;;;;;;;;;6.00;99.90;;;;;;5041098;28;19909;-77
2022/01/27 06:03:10;;;;;;;;;;;6.00;99.90;;;;;;5046309;28;19974;-80
2022/01/27 06:05:36;;;;;;;;;;;5.90;99.90;;;;;;5061118;28;19988;-79
2022/01/27 06:08:01;;;;;;;;;;;6.00;99.90;;;;;;5037851;28;19909;-78
2022/01/27 06:10:27;;;;;;;;;;;5.90;99.90;;;;;;5054097;28;19915;-78
2022/01/27 06:12:53;;;;;;;;;;;6.00;99.90;;;;;;5037246;28;19997;-80
2022/01/27 06:15:22;;;;;;;;;;;6.00;99.90;;;;;;5055389;28;19916;-78
2022/01/27 06:17:48;;;;;;;;;;;6.00;99.90;;;;;;5054469;28;19970;-77
2022/01/27 06:20:14;;;;;;;;;;;6.00;99.90;;;;;;5052540;28;20592;-75
2022/01/27 06:22:40;;;;;;;;;;;6.00;99.90;;;;;;5028127;28;19916;-79
2022/01/27 06:25:06;;;;;;;;;;;6.00;99.90;;;;;;5049222;28;20215;-82
2022/01/27 06:27:31;;;;;;;;;;;5.90;99.90;;;;;;5056874;28;19909;-78
2022/01/27 06:29:57;;;;;;;;;;;5.90;99.90;;;;;;5044831;28;20004;-78
2022/01/27 06:32:22;;;;;;;;;;;5.90;99.90;;;;;;5037568;28;19966;-80
2022/01/27 06:34:48;;;;;;;;;;;5.90;99.90;;;;;;5061856;28;19917;-76
2022/01/27 06:37:14;;;;;;;;;;;5.90;99.90;;;;;;5057190;28;19985;-79
2022/01/27 06:39:39;;;;;;;;;;;5.90;99.90;;;;;;5054315;28;19909;-77
2022/01/27 06:42:07;;;;;;;;;;;5.90;99.90;;;;;;5050283;28;19909;-77
2022/01/27 06:44:33;;;;;;;;;;;5.90;99.90;;;;;;5043754;28;19954;-79
2022/01/27 06:46:58;;;;;;;;;;;5.90;99.90;;;;;;5047148;28;19970;-78
2022/01/27 06:49:24;;;;;;;;;;;6.00;99.90;;;;;;5070987;28;19916;-81
2022/01/27 06:51:49;;;;;;;;;;;6.00;99.90;;;;;;5060376;28;19912;-79
2022/01/27 06:54:16;;;;;;;;;;;6.00;99.90;;;;;;5052826;28;19992;-79
2022/01/27 06:56:42;;;;;;;;;;;6.00;99.90;;;;;;5054558;28;19998;-78
2022/01/27 06:59:08;;;;;;;;;;;6.00;99.90;;;;;;5036569;28;20390;-78
2022/01/27 07:01:33;;;;;;;;;;;6.00;99.90;;;;;;5054378;28;20020;-79
2022/01/27 07:03:59;;;;;;;;;;;6.00;99.90;;;;;;5056341;28;19909;-81
2022/01/27 07:06:24;;;;;;;;;;;5.90;99.90;;;;;;5054078;28;19917;-80
2022/01/27 07:08:50;;;;;;;;;;;6.00;99.90;;;;;;5055028;28;19909;-77
2022/01/27 07:11:15;;;;;;;;;;;6.00;99.90;;;;;;5054027;28;19912;-77
2022/01/27 07:13:41;;;;;;;;;;;6.00;99.90;;;;;;5055956;28;19921;-77
2022/01/27 07:16:07;;;;;;;;;;;6.00;99.90;;;;;;5054099;28;19931;-78
2022/01/27 07:18:32;;;;;;;;;;;6.00;99.90;;;;;;5057610;28;19939;-78
2022/01/27 07:20:58;;;;;;;;;;;6.10;99.90;;;;;;5064220;28;19939;-77
2022/01/27 07:23:23;;;;;;;;;;;6.10;99.90;;;;;;5061339;28;19948;-77
2022/01/27 07:25:49;;;;;;;;;;;6.10;99.90;;;;;;5056450;28;20459;-77
2022/01/27 07:28:14;;;;;;;;;;;6.20;99.90;;;;;;5055655;28;19943;-78
2022/01/27 07:30:39;;;;;;;;;;;6.20;99.90;;;;;;5054885;28;20000;-77
2022/01/27 07:33:05;;;;;;;;;;;6.20;99.90;;;;;;5054736;28;19909;-79
2022/01/27 07:35:31;;;;;;;;;;;6.20;99.90;;;;;;5053715;28;19909;-77
2022/01/27 07:37:56;;;;;;;;;;;6.30;99.90;;;;;;5052284;28;19955;-76
2022/01/27 07:40:22;;;;;;;;;;;6.20;99.90;;;;;;5052427;28;19996;-77
2022/01/27 07:42:47;;;;;;;;;;;6.30;99.90;;;;;;5052273;28;19935;-77
2022/01/27 07:45:13;;;;;;;;;;;6.30;99.90;;;;;;5053685;28;20290;-78
2022/01/27 07:47:38;;;;;;;;;;;6.30;99.90;;;;;;5052194;28;20345;-78
2022/01/27 07:50:04;;;;;;;;;;;6.30;99.90;;;;;;5054738;28;20374;-75
2022/01/27 07:52:29;;;;;;;;;;;6.30;99.90;;;;;;5053765;28;19912;-76
2022/01/27 07:54:55;;;;;;;;;;;6.30;99.90;;;;;;5053305;28;19988;-78
2022/01/27 07:57:20;;;;;;;;;;;6.30;99.90;;;;;;5055218;28;19975;-77
2022/01/27 07:59:46;;;;;;;;;;;6.30;99.90;;;;;;5054048;28;20462;-79
2022/01/27 08:02:11;;;;;;;;;;;6.40;99.90;;;;;;5055857;28;19921;-77
2022/01/27 08:04:37;;;;;;;;;;;6.40;99.90;;;;;;5039041;28;20349;-79
2022/01/27 08:07:02;;;;;;;;;;;6.50;99.90;;;;;;5053544;28;19963;-79
2022/01/27 08:09:28;;;;;;;;;;;6.40;99.90;;;;;;5053175;28;19916;-77
2022/01/27 08:11:54;;;;;;;;;;;6.40;99.90;;;;;;5054718;28;20385;-78
2022/01/27 08:14:19;;;;;;;;;;;6.40;99.90;;;;;;5054694;28;19916;-79
2022/01/27 08:16:45;;;;;;;;;;;6.50;99.90;;;;;;5055011;28;19909;-77
2022/01/27 08:19:10;;;;;;;;;;;6.50;99.90;;;;;;5054310;28;19919;-79
2022/01/27 08:21:36;;;;;;;;;;;6.50;99.90;;;;;;5053369;28;20008;-77
2022/01/27 08:24:01;;;;;;;;;;;6.60;99.90;;;;;;5055102;28;19916;-78
2022/01/27 08:26:35;;;;;;;;;;;6.60;99.90;;;;;;5054897;28;20409;-79
2022/01/27 08:34:35;;;;;;;;;;;6.60;99.90;;;;;;5059936;28;19909;-81
2022/01/27 08:37:03;;;;;;;;;;;6.60;99.90;;;;;;5055678;28;19909;-79
2022/01/27 08:39:28;;;;;;;;;;;6.60;99.90;;;;;;5059075;28;19913;-75
2022/01/27 08:41:54;;;;;;;;;;;6.70;99.90;;;;;;5074433;28;20000;-80
2022/01/27 08:44:20;;;;;;;;;;;6.70;99.90;;;;;;5047665;28;19944;-77
2022/01/27 08:46:45;;;;;;;;;;;6.60;99.90;;;;;;5055131;28;20529;-78
2022/01/27 08:49:11;;;;;;;;;;;6.70;99.90;;;;;;5059205;28;19909;-78
2022/01/27 08:51:37;;;;;;;;;;;6.70;99.90;;;;;;5049221;28;19912;-80
2022/01/27 08:54:02;;;;;;;;;;;6.70;99.90;;;;;;5056478;28;19904;-78
2022/01/27 08:56:28;;;;;;;;;;;6.70;99.90;;;;;;5056914;28;20042;-80
2022/01/27 08:58:57;;;;;;;;;;;6.70;99.90;;;;;;5040273;28;19920;-78
2022/01/27 09:01:24;;;;;;;;;;;6.70;99.90;;;;;;5059668;28;20379;-78
2022/01/27 09:03:50;;;;;;;;;;;6.70;99.90;;;;;;5063413;28;20016;-78
2022/01/27 09:06:18;;;;;;;;;;;6.70;99.90;;;;;;5059674;28;19909;-80
2022/01/27 09:08:44;;;;;;;;;;;6.80;99.90;;;;;;5062317;28;19913;-77
2022/01/27 09:11:09;;;;;;;;;;;6.80;99.90;;;;;;5060749;28;19913;-78
2022/01/27 09:13:36;;;;;;;;;;;6.80;99.90;;;;;;5061283;28;19909;-78
2022/01/27 09:16:01;;;;;;;;;;;6.80;99.90;;;;;;5061857;28;19936;-80
2022/01/27 09:18:27;;;;;;;;;;;6.90;99.90;;;;;;5062961;28;20481;-78
2022/01/27 09:20:52;;;;;;;;;;;6.90;99.90;;;;;;5058533;28;19909;-77
2022/01/27 09:23:18;;;;;;;;;;;6.90;99.90;;;;;;5058374;28;19952;-78
2022/01/27 09:25:46;;;;;;;;;;;6.90;99.90;;;;;;5058583;28;19913;-77
2022/01/27 09:28:12;;;;;;;;;;;6.90;99.90;;;;;;5068259;28;19905;-77
2022/01/27 09:30:39;;;;;;;;;;;6.90;99.90;;;;;;5072980;28;19970;-76
2022/01/27 09:33:04;;;;;;;;;;;7.00;99.90;;;;;;5073870;28;19909;-76
2022/01/27 09:35:31;;;;;;;;;;;7.00;99.90;;;;;;5070192;28;19960;-76
2022/01/27 09:37:58;;;;;;;;;;;6.90;99.90;;;;;;5057757;28;20458;-76
2022/01/27 09:40:24;;;;;;;;;;;7.00;99.90;;;;;;5039590;28;19916;-77
2022/01/27 09:42:52;;;;;;;;;;;7.00;99.90;;;;;;5057476;28;19916;-78
2022/01/27 09:45:18;;;;;;;;;;;7.10;99.90;;;;;;5059561;28;20442;-78
2022/01/27 09:47:46;;;;;;;;;;;7.00;99.90;;;;;;5060261;28;19920;-78
2022/01/27 09:52:40;;;;;;;;;;;7.10;99.90;;;;;;5060210;28;19909;-78
2022/01/27 09:55:06;;;;;;;;;;;7.10;99.90;;;;;;5058330;28;19935;-80
2022/01/27 09:57:31;;;;;;;;;;;7.10;99.90;;;;;;5024129;28;19909;-76
2022/01/27 09:59:57;;;;;;;;;;;7.10;99.90;;;;;;5059073;28;19909;-78
2022/01/27 10:02:25;;;;;;;;;;;7.10;99.90;;;;;;5059785;28;19908;-80
2022/01/27 10:04:57;;;;;;;;;;;7.10;99.90;;;;;;5060145;28;20495;-78
2022/01/27 10:07:24;;;;;;;;;;;7.20;99.90;;;;;;5060050;28;20004;-81
2022/01/27 10:10:06;;;;;;;;;;;7.20;99.90;;;;;;5059140;28;19931;-79
2022/01/27 10:12:36;;;;;;;;;;;7.30;99.90;;;;;;5059993;28;19909;-80
2022/01/27 10:15:06;;;;;;;;;;;7.30;99.90;;;;;;5043176;28;19920;-80
2022/01/27 10:17:36;;;;;;;;;;;7.20;99.90;;;;;;5045052;28;19909;-80
2022/01/27 10:20:02;;;;;;;;;;;7.30;99.90;;;;;;5058245;28;19916;-80
2022/01/27 10:22:28;;;;;;;;;;;7.30;99.90;;;;;;5040447;28;19972;-78
2022/01/27 10:25:01;;;;;;;;;;;7.30;99.90;;;;;;5057627;28;19916;-79
2022/01/27 10:27:45;;;;;;;;;;;7.40;99.90;;;;;;5065199;28;19923;-80
2022/01/27 10:32:50;;;;;;;;;;;7.50;99.90;;;;;;5058798;28;19908;-80
2022/01/27 10:35:16;;;;;;;;;;;7.50;99.90;;;;;;5043648;28;20361;-79
2022/01/27 10:37:56;;;;;;;;;;;7.50;99.90;;;;;;5057481;28;19924;-79
2022/01/27 10:40:22;;;;;;;;;;;7.50;99.90;;;;;;5056989;28;19970;-78
2022/01/27 10:43:06;;;;;;;;;;;7.50;99.90;;;;;;5056631;28;19944;-79
2022/01/27 10:45:31;;;;;;;;;;;7.60;99.90;;;;;;5038325;28;19909;-78
2022/01/27 10:48:29;;;;;;;;;;;7.60;99.90;;;;;;5058644;28;20299;-78
2022/01/27 10:51:02;;;;;;;;;;;7.60;99.90;;;;;;5042045;28;19913;-79
2022/01/27 10:53:42;;;;;;;;;;;7.60;99.90;;;;;;5057429;28;19916;-80
2022/01/27 10:56:07;;;;;;;;;;;7.60;99.90;;;;;;5055839;28;20521;-77
2022/01/27 10:58:34;;;;;;;;;;;7.70;99.90;;;;;;5057107;28;19978;-76
2022/01/27 11:00:59;;;;;;;;;;;7.70;99.90;;;;;;5037714;28;20530;-77
2022/01/27 11:03:26;;;;;;;;;;;7.70;99.90;;;;;;5056824;28;19936;-80
2022/01/27 11:05:54;;;;;;;;;;;7.70;99.90;;;;;;5057830;28;19920;-79
2022/01/27 11:08:20;;;;;;;;;;;7.70;99.90;;;;;;5057430;28;19970;-78
2022/01/27 11:10:48;;;;;;;;;;;7.80;99.90;;;;;;5054043;28;19930;-79
2022/01/27 11:13:15;;;;;;;;;;;7.70;99.90;;;;;;5057927;28;20390;-78
2022/01/27 11:15:42;;;;;;;;;;;7.80;99.90;;;;;;5054311;28;19997;-77
2022/01/27 11:18:08;;;;;;;;;;;7.80;99.90;;;;;;5054827;28;19917;-78
2022/01/27 11:20:49;;;;;;;;;;;7.80;99.90;;;;;;5054395;28;19913;-79
2022/01/27 11:26:05;;;;;;;;;;;7.80;99.90;;;;;;5054359;28;19923;-78
2022/01/27 11:28:32;;;;;;;;;;;7.80;99.90;;;;;;5055768;28;19913;-80
2022/01/27 11:31:10;;;;;;;;;;;7.80;99.90;;;;;;5055907;28;19913;-79
2022/01/27 11:33:36;;;;;;;;;;;7.80;99.90;;;;;;5037595;28;20016;-79
2022/01/27 11:36:06;;;;;;;;;;;7.90;99.90;;;;;;5056857;28;19913;-79
2022/01/27 11:38:31;;;;;;;;;;;7.90;99.90;;;;;;5038466;28;19913;-79
2022/01/27 11:40:57;;;;;;;;;;;7.90;99.90;;;;;;5058397;28;19947;-77
2022/01/27 11:43:33;;;;;;;;;;;7.90;99.90;;;;;;5055661;28;19908;-78
2022/01/27 11:46:11;;;;;;;;;;;7.90;99.90;;;;;;5054726;28;20363;-77
2022/01/27 11:48:36;;;;;;;;;;;8.00;99.90;;;;;;5020571;28;19909;-78
2022/01/27 11:51:07;;;;;;;;;;;8.00;99.90;;;;;;5062824;28;19966;-80
2022/01/27 11:53:34;;;;;;;;;;;8.10;99.90;;;;;;5055758;28;19931;-78
2022/01/27 11:56:00;;;;;;;;;;;8.10;99.90;;;;;;5054682;28;20322;-78
2022/01/27 11:58:26;;;;;;;;;;;8.20;99.90;;;;;;5054518;28;19952;-79
2022/01/27 12:01:11;;;;;;;;;;;8.30;99.90;;;;;;5057768;28;19913;-78
2022/01/27 12:03:37;;;;;;;;;;;8.30;99.90;;;;;;5056427;28;19905;-79
2022/01/27 12:06:11;;;;;;;;;;;8.40;99.90;;;;;;5057056;28;19909;-77
2022/01/27 12:08:36;;;;;;;;;;;8.40;99.90;;;;;;5058208;28;19912;-80
2022/01/27 12:11:06;;;;;;;;;;;8.50;99.90;;;;;;5056235;28;19916;-78
2022/01/27 12:13:38;;;;;;;;;;;8.50;99.90;;;;;;5055868;28;19916;-81
2022/01/27 12:19:04;;;;;;;;;;;8.70;99.90;;;;;;5056112;28;19912;-78
2022/01/27 12:21:32;;;;;;;;;;;8.60;99.90;;;;;;5054598;28;19963;-82
2022/01/27 12:24:10;;;;;;;;;;;8.60;99.90;;;;;;5052766;28;20247;-81
2022/01/27 12:26:54;;;;;;;;;;;8.60;99.90;;;;;;5054379;28;19913;-79
2022/01/27 12:29:21;;;;;;;;;;;8.60;99.90;;;;;;5054935;28;20434;-79
2022/01/27 12:31:47;;;;;;;;;;;8.70;99.90;;;;;;5056803;28;19913;-80
2022/01/27 12:34:12;;;;;;;;;;;8.70;99.90;;;;;;5053390;28;19908;-80
2022/01/27 12:36:38;;;;;;;;;;;8.70;99.90;;;;;;5054587;28;19909;-80
2022/01/27 12:39:03;;;;;;;;;;;8.70;99.90;;;;;;5036702;28;19924;-81
2022/01/27 12:41:35;;;;;;;;;;;8.80;99.90;;;;;;5060273;28;19916;-80
2022/01/27 13:35:05;;;;;;;23.95;7.88;;;9.10;99.90;;;;;;5079960;27;25083;-61
2022/01/27 13:37:33;;;;;;;22.10;8.48;;;9.20;99.90;;;;;;5075686;28;25112;-59
2022/01/27 13:42:55;;;;;;;34.33;8.15;;;9.20;99.90;;;;;;5065773;28;25107;-61
2022/01/27 13:45:21;;;;;;;21.38;6.90;;;9.30;99.90;;;;;;5065702;28;25066;-62
2022/01/27 13:47:47;;;;;;;20.67;6.30;;;9.30;99.90;;;;;;5065715;28;25094;-61
2022/01/27 13:50:15;;;;;;;22.60;6.45;;;9.40;99.90;;;;;;5065189;28;25102;-61
2022/01/27 13:52:47;;;;;;;19.08;5.88;;;9.40;99.90;;;;;;5064233;28;25094;-61
2022/01/27 13:55:18;;;;;;;19.40;6.03;;;9.50;99.90;;;;;;5065521;28;25136;-61
2022/01/27 13:57:50;;;;;;;15.50;5.32;;;9.50;99.90;;;;;;5064045;28;25102;-61
2022/01/27 14:00:20;;;;;;;15.85;5.30;;;9.50;99.90;;;;;;5065166;28;25050;-62
2022/01/27 14:02:48;;;;;;;15.98;4.60;;;9.50;99.90;;;;;;5066467;28;25071;-61
2022/01/27 14:05:13;;;;;;;15.25;5.68;;;9.50;99.90;;;;;;5065939;28;25100;-62
2022/01/27 14:07:42;;;;;;;15.00;4.53;;;9.60;99.90;;;;;;5068148;28;25073;-61
2022/01/27 14:10:19;;;;;;;12.55;4.85;;;9.60;99.90;;;;;;5065902;28;25098;-60
2022/01/27 14:13:04;;;;;;;18.75;4.75;;;9.60;99.90;;;;;;5064522;28;25066;-60
2022/01/27 14:15:38;;;;;;;12.82;4.53;;;9.70;99.90;;;;;;5063819;28;25166;-60
2022/01/27 14:18:20;;;;;;;13.38;4.72;;;9.60;99.90;;;;;;5064884;28;25146;-60
2022/01/27 14:20:54;;;;;;;14.85;5.22;;;9.60;99.90;;;;;;5065779;28;25151;-61
2022/01/27 14:23:30;;;;;;;29.08;5.57;;;9.60;99.90;;;;;;5065477;28;25057;-60
2022/01/27 14:26:05;;;;;;;13.55;5.63;;;9.50;99.90;;;;;;5065009;28;25061;-61
2022/01/27 14:28:30;;;;;;;12.20;4.78;;;9.50;99.90;;;;;;5064360;28;25101;-59
2022/01/27 14:30:56;;;;;;;17.20;5.03;;;9.50;99.90;;;;;;5065199;28;25135;-59
2022/01/27 14:33:21;;;;;;;15.32;5.40;;;9.50;99.90;;;;;;5073255;28;25073;-62
2022/01/27 14:35:47;;;;;;;17.83;4.07;;;9.50;99.90;;;;;;5073875;28;25066;-60
2022/01/27 14:38:12;;;;;;;16.05;5.30;;;9.50;99.90;;;;;;5070601;28;25104;-60
2022/01/27 14:40:39;;;;;;;11.93;4.68;;;9.40;99.90;;;;;;5070303;28;25050;-61
2022/01/27 14:43:05;;;;;;;13.80;4.93;;;9.40;99.90;;;;;;5070318;28;25138;-61
2022/01/27 14:45:31;;;;;;;24.02;6.25;;;9.40;99.90;;;;;;5070513;28;25126;-61
2022/01/27 14:48:02;;;;;;;20.63;5.18;;;9.40;99.90;;;;;;5070788;28;25133;-60
2022/01/27 14:50:28;;;;;;;13.13;4.57;;;9.40;99.90;;;;;;5071538;28;25058;-60
2022/01/27 14:52:56;;;;;;;19.38;5.90;;;9.40;99.90;;;;;;5070377;28;25159;-61
2022/01/27 14:55:23;;;;;;;20.25;4.93;;;9.30;99.90;;;;;;5069288;28;25048;-60
2022/01/27 14:57:49;;;;;;;14.55;4.68;;;9.40;99.90;;;;;;5070420;28;25072;-60
2022/01/27 15:00:17;;;;;;;15.05;5.20;;;9.40;99.90;;;;;;5071250;28;25134;-59
2022/01/27 15:02:42;;;;;;;16.38;4.88;;;9.40;99.90;;;;;;5070937;28;25085;-61
2022/01/27 15:05:09;;;;;;;19.40;5.80;;;9.40;99.90;;;;;;5070959;28;24735;-60
2022/01/27 15:07:37;;;;;;;10.98;4.60;;;9.40;99.90;;;;;;5069275;28;25136;-59
2022/01/27 15:10:04;;;;;;;21.92;4.97;;;9.40;99.90;;;;;;5070401;28;25075;-61
2022/01/27 15:12:29;;;;;;;21.48;4.95;;;9.40;99.90;;;;;;5070699;28;25156;-60
2022/01/27 15:20:23;;;;;;;14.23;4.72;;;9.40;99.90;;;;;;5069956;28;25067;-59
2022/01/27 15:22:49;;;;;;;15.65;5.85;;;9.40;99.90;;;;;;5069978;28;25141;-60
2022/01/27 15:25:16;;;;;;;15.82;4.28;;;9.40;99.90;;;;;;5069527;28;25167;-60
2022/01/27 15:27:42;;;;;;;11.88;4.32;;;9.40;99.90;;;;;;5068347;28;25060;-61
2022/01/27 15:30:08;;;;;;;13.57;4.22;;;9.40;99.90;;;;;;5070179;28;25106;-61
2022/01/27 15:32:33;;;;;;;17.70;4.70;;;9.40;99.90;;;;;;5067876;28;25062;-61
2022/01/27 15:35:00;;;;;;;13.52;3.97;;;9.40;99.90;;;;;;5069569;28;25064;-60
2022/01/27 15:37:26;;;;;;;17.70;4.43;;;9.30;99.90;;;;;;5069514;28;25068;-61
2022/01/27 15:39:55;;;;;;;14.15;3.60;;;9.30;99.90;;;;;;5070023;28;25069;-60
2022/01/27 15:42:22;;;;;;;16.60;4.00;;;9.30;99.90;;;;;;5070162;28;25112;-60
2022/01/27 15:44:47;;;;;;;12.45;3.78;;;9.30;99.90;;;;;;5068993;28;25087;-61
2022/01/27 15:47:14;;;;;;;18.15;3.92;;;9.30;99.90;;;;;;5068380;28;25082;-61
2022/01/27 15:49:41;;;;;;;14.55;3.78;;;9.20;99.90;;;;;;5069644;28;25125;-60
2022/01/27 15:52:07;;;;;;;17.63;4.65;;;9.20;99.90;;;;;;5069378;28;25059;-60
2022/01/27 15:54:33;;;;;;;16.65;4.00;;;9.10;99.90;;;;;;5068720;28;25053;-60
2022/01/27 15:56:58;;;;;;;16.00;3.78;;;9.10;99.90;;;;;;5069305;28;25058;-60
2022/01/27 15:59:27;;;;;;;18.48;3.72;;;9.20;99.90;;;;;;5069225;28;25059;-61
2022/01/27 16:01:54;;;;;;;12.75;2.65;;;9.10;99.90;;;;;;5069353;28;25103;-60
2022/01/27 16:04:20;;;;;;;16.13;3.70;;;9.10;99.90;;;;;;5068675;28;25097;-59